sensor_id;sensor_type;location;lat;lon;timestamp;temperature;humidity
5786;DHT22;2919;48.630;9.000;2022-10-23T00:00:34;9.30;99.90
5786;DHT22;2919;48.630;9.000;2022-10-23T00:02:59;9.30;99.90
5786;DHT22;2919;48.630;9.000;2022-10-23T00:05:26;9.20;99.90
5786;DHT22;2919;48.630;9.000;2022-10-23T00:07:53;9.20;99.90
5786;DHT22;2919;48.630;9.000;2022-10-23T00:10:20;9.20;99.90
5786;DHT22;2919;48.630;9.000;2022-10-23T00:12:47;9.20;99.90
5786;DHT22;2919;48.630;9.000;2022-10-23T00:15:14;9.20;99.90
5786;DHT22;2919;48.630;9.000;2022-10-23T00:17:41;9.20;99.90
5786;DHT22;2919;48.630;9.000;2022-10-23T00:20:07;9.10;99.90
5786;DHT22;2919;48.630;9.000;2022-10-23T00:22:33;9.20;99.90
5786;DHT22;2919;48.630;9.000;2022-10-23T00:24:59;9.10;99.90
5786;DHT22;2919;48.630;9.000;2022-10-23T00:27:25;9.10;99.90
5786;DHT22;2919;48.630;9.000;2022-10-23T00:29:51;9.10;99.90
5786;DHT22;2919;48.630;9.000;2022-10-23T00:32:17;9.10;99.90
5786;DHT22;2919;48.630;9.000;2022-10-23T00:34:42;9.00;99.90
5786;DHT22;2919;48.630;9.000;2022-10-23T00:37:08;9.00;99.90
5786;DHT22;2919;48.630;9.000;2022-10-23T00:39:34;9.00;99.90
5786;DHT22;2919;48.630;9.000;2022-10-23T00:42:00;9.00;99.90
5786;DHT22;2919;48.630;9.000;2022-10-23T00:46:55;9.00;99.90
5786;DHT22;2919;48.630;9.000;2022-10-23T00:49:21;9.00;99.90
5786;DHT22;2919;48.630;9.000;2022-10-23T00:51:59;9.00;99.90
5786;DHT22;2919;48.630;9.000;2022-10-23T00:54:30;9.00;99.90
5786;DHT22;2919;48.630;9.000;2022-10-23T00:56:59;9.00;99.90
5786;DHT22;2919;48.630;9.000;2022-10-23T00:59:26;9.00;99.90
5786;DHT22;2919;48.630;9.000;2022-10-23T01:01:51;9.00;99.90
5786;DHT22;2919;48.630;9.000;2022-10-23T01:04:18;9.00;99.90
5786;DHT22;2919;48.630;9.000;2022-10-23T01:07:21;9.00;99.90
5786;DHT22;2919;48.630;9.000;2022-10-23T01:10:20;9.00;99.90
5786;DHT22;2919;48.630;9.000;2022-10-23T01:13:02;9.00;99.90
5786;DHT22;2919;48.630;9.000;2022-10-23T01:15:41;9.00;99.90
5786;DHT22;2919;48.630;9.000;2022-10-23T01:20:50;9.00;99.90
5786;DHT22;2919;48.630;9.000;2022-10-23T01:23:41;9.00;99.90
5786;DHT22;2919;48.630;9.000;2022-10-23T01:31:56;8.90;99.90
5786;DHT22;2919;48.630;9.000;2022-10-23T01:34:34;8.90;99.90
5786;DHT22;2919;48.630;9.000;2022-10-23T01:37:04;8.90;99.90
5786;DHT22;2919;48.630;9.000;2022-10-23T01:39:37;8.80;99.90
5786;DHT22;2919;48.630;9.000;2022-10-23T01:42:11;8.90;99.90
5786;DHT22;2919;48.630;9.000;2022-10-23T01:44:58;8.90;99.90
5786;DHT22;2919;48.630;9.000;2022-10-23T01:47:27;8.80;99.90
5786;DHT22;2919;48.630;9.000;2022-10-23T01:49:56;8.80;99.90
5786;DHT22;2919;48.630;9.000;2022-10-23T01:52:23;8.80;99.90
5786;DHT22;2919;48.630;9.000;2022-10-23T01:54:50;8.80;99.90
5786;DHT22;2919;48.630;9.000;2022-10-23T01:57:19;8.80;99.90
5786;DHT22;2919;48.630;9.000;2022-10-23T01:59:51;8.80;99.90
5786;DHT22;2919;48.630;9.000;2022-10-23T02:02:19;8.80;99.90
5786;DHT22;2919;48.630;9.000;2022-10-23T02:04:54;8.70;99.90
5786;DHT22;2919;48.630;9.000;2022-10-23T02:07:21;8.80;99.90
5786;DHT22;2919;48.630;9.000;2022-10-23T02:09:47;8.70;99.90
5786;DHT22;2919;48.630;9.000;2022-10-23T02:12:22;8.70;99.90
5786;DHT22;2919;48.630;9.000;2022-10-23T02:14:55;8.70;99.90
5786;DHT22;2919;48.630;9.000;2022-10-23T02:18:00;8.70;99.90
5786;DHT22;2919;48.630;9.000;2022-10-23T02:25:58;8.70;99.90
5786;DHT22;2919;48.630;9.000;2022-10-23T02:28:29;8.70;99.90
5786;DHT22;2919;48.630;9.000;2022-10-23T02:30:59;8.70;99.90
5786;DHT22;2919;48.630;9.000;2022-10-23T02:33:27;8.70;99.90
5786;DHT22;2919;48.630;9.000;2022-10-23T02:35:54;8.60;99.90
5786;DHT22;2919;48.630;9.000;2022-10-23T02:38:38;8.70;99.90
5786;DHT22;2919;48.630;9.000;2022-10-23T02:46:38;8.60;99.90
5786;DHT22;2919;48.630;9.000;2022-10-23T02:49:18;8.70;99.90
5786;DHT22;2919;48.630;9.000;2022-10-23T02:54:59;8.70;99.90
5786;DHT22;2919;48.630;9.000;2022-10-23T02:57:43;8.70;99.90
5786;DHT22;2919;48.630;9.000;2022-10-23T03:00:19;8.60;99.90
5786;DHT22;2919;48.630;9.000;2022-10-23T03:02:57;8.70;99.90
5786;DHT22;2919;48.630;9.000;2022-10-23T03:05:33;8.70;99.90
5786;DHT22;2919;48.630;9.000;2022-10-23T03:08:02;8.70;99.90
5786;DHT22;2919;48.630;9.000;2022-10-23T03:10:28;8.70;99.90
5786;DHT22;2919;48.630;9.000;2022-10-23T03:12:54;8.70;99.90
5786;DHT22;2919;48.630;9.000;2022-10-23T03:15:19;8.70;99.90
5786;DHT22;2919;48.630;9.000;2022-10-23T03:17:45;8.80;99.90
5786;DHT22;2919;48.630;9.000;2022-10-23T03:20:11;8.80;99.90
5786;DHT22;2919;48.630;9.000;2022-10-23T03:22:36;8.90;99.90
5786;DHT22;2919;48.630;9.000;2022-10-23T03:25:03;8.90;99.90
5786;DHT22;2919;48.630;9.000;2022-10-23T03:27:28;9.00;99.90
5786;DHT22;2919;48.630;9.000;2022-10-23T03:29:54;9.00;99.90
5786;DHT22;2919;48.630;9.000;2022-10-23T03:32:20;9.10;99.90
5786;DHT22;2919;48.630;9.000;2022-10-23T03:34:45;9.20;99.90
5786;DHT22;2919;48.630;9.000;2022-10-23T03:37:11;9.20;99.90
5786;DHT22;2919;48.630;9.000;2022-10-23T03:39:36;9.30;99.90
5786;DHT22;2919;48.630;9.000;2022-10-23T03:42:02;9.20;99.90
5786;DHT22;2919;48.630;9.000;2022-10-23T03:44:28;9.20;99.90
5786;DHT22;2919;48.630;9.000;2022-10-23T03:46:55;9.20;99.90
5786;DHT22;2919;48.630;9.000;2022-10-23T03:49:21;9.20;99.90
5786;DHT22;2919;48.630;9.000;2022-10-23T03:51:47;9.20;99.90
5786;DHT22;2919;48.630;9.000;2022-10-23T03:54:22;9.10;99.90
5786;DHT22;2919;48.630;9.000;2022-10-23T03:56:48;9.00;99.90
5786;DHT22;2919;48.630;9.000;2022-10-23T03:59:14;9.00;99.90
5786;DHT22;2919;48.630;9.000;2022-10-23T04:01:39;9.00;99.90
5786;DHT22;2919;48.630;9.000;2022-10-23T04:04:05;8.90;99.90
5786;DHT22;2919;48.630;9.000;2022-10-23T04:06:31;8.90;99.90
5786;DHT22;2919;48.630;9.000;2022-10-23T04:08:57;8.90;99.90
5786;DHT22;2919;48.630;9.000;2022-10-23T04:11:22;8.90;99.90
5786;DHT22;2919;48.630;9.000;2022-10-23T04:13:48;8.90;99.90
5786;DHT22;2919;48.630;9.000;2022-10-23T04:16:14;8.80;99.90
5786;DHT22;2919;48.630;9.000;2022-10-23T04:18:42;8.90;99.90
5786;DHT22;2919;48.630;9.000;2022-10-23T04:21:08;8.90;99.90
5786;DHT22;2919;48.630;9.000;2022-10-23T04:23:34;8.90;99.90
5786;DHT22;2919;48.630;9.000;2022-10-23T04:26:00;8.90;99.90
5786;DHT22;2919;48.630;9.000;2022-10-23T04:28:26;8.90;99.90
5786;DHT22;2919;48.630;9.000;2022-10-23T04:30:51;9.00;99.90
5786;DHT22;2919;48.630;9.000;2022-10-23T04:33:17;9.00;99.90
5786;DHT22;2919;48.630;9.000;2022-10-23T04:35:43;9.00;99.90
5786;DHT22;2919;48.630;9.000;2022-10-23T04:38:09;9.10;99.90
5786;DHT22;2919;48.630;9.000;2022-10-23T04:40:34;9.10;99.90
5786;DHT22;2919;48.630;9.000;2022-10-23T04:43:00;9.10;99.90
5786;DHT22;2919;48.630;9.000;2022-10-23T04:45:26;9.10;99.90
5786;DHT22;2919;48.630;9.000;2022-10-23T04:47:51;9.20;99.90
5786;DHT22;2919;48.630;9.000;2022-10-23T04:50:23;9.20;99.90
5786;DHT22;2919;48.630;9.000;2022-10-23T04:52:53;9.10;99.90
5786;DHT22;2919;48.630;9.000;2022-10-23T04:55:19;9.10;99.90
5786;DHT22;2919;48.630;9.000;2022-10-23T04:57:45;9.10;99.90
5786;DHT22;2919;48.630;9.000;2022-10-23T05:00:13;9.10;99.90
5786;DHT22;2919;48.630;9.000;2022-10-23T05:02:40;9.10;99.90
5786;DHT22;2919;48.630;9.000;2022-10-23T05:05:06;9.10;99.90
5786;DHT22;2919;48.630;9.000;2022-10-23T05:07:33;9.10;99.90
5786;DHT22;2919;48.630;9.000;2022-10-23T05:09:59;9.00;99.90
5786;DHT22;2919;48.630;9.000;2022-10-23T05:12:25;9.00;99.90
5786;DHT22;2919;48.630;9.000;2022-10-23T05:14:52;9.00;99.90
5786;DHT22;2919;48.630;9.000;2022-10-23T05:17:48;9.00;99.90
5786;DHT22;2919;48.630;9.000;2022-10-23T05:20:18;9.00;99.90
5786;DHT22;2919;48.630;9.000;2022-10-23T05:22:45;9.10;99.90
5786;DHT22;2919;48.630;9.000;2022-10-23T05:25:14;9.30;99.90
5786;DHT22;2919;48.630;9.000;2022-10-23T05:27:40;9.20;99.90
5786;DHT22;2919;48.630;9.000;2022-10-23T05:30:06;9.20;99.90
5786;DHT22;2919;48.630;9.000;2022-10-23T05:32:32;9.20;99.90
5786;DHT22;2919;48.630;9.000;2022-10-23T05:35:00;9.20;99.90
5786;DHT22;2919;48.630;9.000;2022-10-23T05:37:27;9.20;99.90
5786;DHT22;2919;48.630;9.000;2022-10-23T05:39:53;9.40;99.90
5786;DHT22;2919;48.630;9.000;2022-10-23T05:42:19;9.20;99.90
5786;DHT22;2919;48.630;9.000;2022-10-23T05:44:44;9.20;99.90
5786;DHT22;2919;48.630;9.000;2022-10-23T05:47:10;9.30;99.90
5786;DHT22;2919;48.630;9.000;2022-10-23T05:49:35;9.30;99.90
5786;DHT22;2919;48.630;9.000;2022-10-23T05:52:01;9.30;99.90
5786;DHT22;2919;48.630;9.000;2022-10-23T05:54:27;9.30;99.90
5786;DHT22;2919;48.630;9.000;2022-10-23T05:56:52;9.30;99.90
5786;DHT22;2919;48.630;9.000;2022-10-23T05:59:19;9.30;99.90
5786;DHT22;2919;48.630;9.000;2022-10-23T06:01:45;9.30;99.90
5786;DHT22;2919;48.630;9.000;2022-10-23T06:04:11;9.30;99.90
5786;DHT22;2919;48.630;9.000;2022-10-23T06:06:36;9.30;99.90
5786;DHT22;2919;48.630;9.000;2022-10-23T06:09:03;9.30;99.90
5786;DHT22;2919;48.630;9.000;2022-10-23T06:11:29;9.30;99.90
5786;DHT22;2919;48.630;9.000;2022-10-23T06:13:54;9.30;99.90
5786;DHT22;2919;48.630;9.000;2022-10-23T06:16:22;9.20;99.90
5786;DHT22;2919;48.630;9.000;2022-10-23T06:18:49;9.20;99.90
5786;DHT22;2919;48.630;9.000;2022-10-23T06:21:15;9.20;99.90
5786;DHT22;2919;48.630;9.000;2022-10-23T06:23:42;9.30;99.90
5786;DHT22;2919;48.630;9.000;2022-10-23T06:26:10;9.30;99.90
5786;DHT22;2919;48.630;9.000;2022-10-23T06:28:37;9.30;99.90
5786;DHT22;2919;48.630;9.000;2022-10-23T06:31:07;9.30;99.90
5786;DHT22;2919;48.630;9.000;2022-10-23T06:33:33;9.40;99.90
5786;DHT22;2919;48.630;9.000;2022-10-23T06:35:59;9.40;99.90
5786;DHT22;2919;48.630;9.000;2022-10-23T06:38:24;9.50;99.90
5786;DHT22;2919;48.630;9.000;2022-10-23T06:40:55;9.50;99.90
5786;DHT22;2919;48.630;9.000;2022-10-23T06:43:21;9.60;99.90
5786;DHT22;2919;48.630;9.000;2022-10-23T06:45:47;9.70;99.90
5786;DHT22;2919;48.630;9.000;2022-10-23T06:48:16;9.70;99.90
5786;DHT22;2919;48.630;9.000;2022-10-23T06:50:41;9.80;99.90
5786;DHT22;2919;48.630;9.000;2022-10-23T06:53:07;9.90;99.90
5786;DHT22;2919;48.630;9.000;2022-10-23T06:55:34;9.90;99.90
5786;DHT22;2919;48.630;9.000;2022-10-23T06:57:59;9.90;99.90
5786;DHT22;2919;48.630;9.000;2022-10-23T07:00:25;10.10;99.90
5786;DHT22;2919;48.630;9.000;2022-10-23T07:02:51;10.10;99.90
5786;DHT22;2919;48.630;9.000;2022-10-23T07:05:17;10.20;99.90
5786;DHT22;2919;48.630;9.000;2022-10-23T07:07:43;10.30;99.90
5786;DHT22;2919;48.630;9.000;2022-10-23T07:10:09;10.40;99.90
5786;DHT22;2919;48.630;9.000;2022-10-23T07:12:34;10.50;99.90
5786;DHT22;2919;48.630;9.000;2022-10-23T07:15:00;10.70;99.90
5786;DHT22;2919;48.630;9.000;2022-10-23T07:17:27;10.70;99.90
5786;DHT22;2919;48.630;9.000;2022-10-23T07:19:53;10.80;99.90
5786;DHT22;2919;48.630;9.000;2022-10-23T07:22:19;11.00;99.90
5786;DHT22;2919;48.630;9.000;2022-10-23T07:24:44;11.10;99.90
5786;DHT22;2919;48.630;9.000;2022-10-23T07:27:10;11.30;99.90
5786;DHT22;2919;48.630;9.000;2022-10-23T07:29:35;11.50;99.90
5786;DHT22;2919;48.630;9.000;2022-10-23T07:32:01;11.50;99.90
5786;DHT22;2919;48.630;9.000;2022-10-23T07:34:27;11.60;99.90
5786;DHT22;2919;48.630;9.000;2022-10-23T07:36:52;11.70;99.90
5786;DHT22;2919;48.630;9.000;2022-10-23T07:39:19;11.80;99.90
5786;DHT22;2919;48.630;9.000;2022-10-23T07:41:47;11.90;99.90
5786;DHT22;2919;48.630;9.000;2022-10-23T07:44:12;12.00;99.90
5786;DHT22;2919;48.630;9.000;2022-10-23T07:46:38;12.20;99.90
5786;DHT22;2919;48.630;9.000;2022-10-23T07:49:04;12.40;99.90
5786;DHT22;2919;48.630;9.000;2022-10-23T07:51:29;12.50;99.90
5786;DHT22;2919;48.630;9.000;2022-10-23T07:53:55;12.50;99.90
5786;DHT22;2919;48.630;9.000;2022-10-23T07:56:23;12.70;99.90
5786;DHT22;2919;48.630;9.000;2022-10-23T07:58:52;12.90;99.90
5786;DHT22;2919;48.630;9.000;2022-10-23T08:03:57;13.20;99.90
5786;DHT22;2919;48.630;9.000;2022-10-23T08:06:22;13.30;99.90
5786;DHT22;2919;48.630;9.000;2022-10-23T08:08:48;13.50;99.90
5786;DHT22;2919;48.630;9.000;2022-10-23T08:11:15;13.80;99.90
5786;DHT22;2919;48.630;9.000;2022-10-23T08:13:42;14.30;99.90
5786;DHT22;2919;48.630;9.000;2022-10-23T08:16:08;14.80;99.90
5786;DHT22;2919;48.630;9.000;2022-10-23T08:18:34;15.30;99.90
5786;DHT22;2919;48.630;9.000;2022-10-23T08:21:01;15.70;99.90
5786;DHT22;2919;48.630;9.000;2022-10-23T08:23:28;16.10;99.90
5786;DHT22;2919;48.630;9.000;2022-10-23T08:25:58;16.60;99.90
5786;DHT22;2919;48.630;9.000;2022-10-23T08:28:25;16.70;99.90
5786;DHT22;2919;48.630;9.000;2022-10-23T08:30:51;16.40;99.90
5786;DHT22;2919;48.630;9.000;2022-10-23T08:33:16;16.10;99.90
5786;DHT22;2919;48.630;9.000;2022-10-23T08:35:42;15.90;99.90
5786;DHT22;2919;48.630;9.000;2022-10-23T08:38:09;15.70;99.90
5786;DHT22;2919;48.630;9.000;2022-10-23T08:40:35;15.50;99.90
5786;DHT22;2919;48.630;9.000;2022-10-23T08:45:37;15.30;99.90
5786;DHT22;2919;48.630;9.000;2022-10-23T08:50:54;15.40;99.90
5786;DHT22;2919;48.630;9.000;2022-10-23T08:53:40;15.30;99.90
5786;DHT22;2919;48.630;9.000;2022-10-23T08:56:21;15.30;99.90
5786;DHT22;2919;48.630;9.000;2022-10-23T08:59:14;15.40;99.90
5786;DHT22;2919;48.630;9.000;2022-10-23T09:04:25;15.40;99.90
5786;DHT22;2919;48.630;9.000;2022-10-23T09:10:24;15.50;99.90
5786;DHT22;2919;48.630;9.000;2022-10-23T09:12:28;14.10;99.90
5786;DHT22;2919;48.630;9.000;2022-10-23T09:15:03;16.40;99.90
5786;DHT22;2919;48.630;9.000;2022-10-23T09:17:35;15.40;99.90
5786;DHT22;2919;48.630;9.000;2022-10-23T09:20:11;15.40;99.90
5786;DHT22;2919;48.630;9.000;2022-10-23T09:22:37;15.40;99.90
5786;DHT22;2919;48.630;9.000;2022-10-23T09:25:09;16.60;99.90
5786;DHT22;2919;48.630;9.000;2022-10-23T09:27:35;15.50;99.90
5786;DHT22;2919;48.630;9.000;2022-10-23T09:30:01;15.70;99.90
5786;DHT22;2919;48.630;9.000;2022-10-23T09:32:34;15.70;99.90
5786;DHT22;2919;48.630;9.000;2022-10-23T09:35:01;15.70;99.90
5786;DHT22;2919;48.630;9.000;2022-10-23T09:37:31;15.80;99.90
5786;DHT22;2919;48.630;9.000;2022-10-23T09:40:21;15.90;99.90
5786;DHT22;2919;48.630;9.000;2022-10-23T09:42:58;15.90;99.90
5786;DHT22;2919;48.630;9.000;2022-10-23T09:45:27;16.10;99.90
5786;DHT22;2919;48.630;9.000;2022-10-23T09:48:18;16.20;99.90
5786;DHT22;2919;48.630;9.000;2022-10-23T09:50:51;16.40;99.90
5786;DHT22;2919;48.630;9.000;2022-10-23T09:53:36;16.70;99.90
5786;DHT22;2919;48.630;9.000;2022-10-23T09:58:58;17.00;99.90
5786;DHT22;2919;48.630;9.000;2022-10-23T10:01:28;17.20;99.90
5786;DHT22;2919;48.630;9.000;2022-10-23T10:03:54;17.30;99.90
5786;DHT22;2919;48.630;9.000;2022-10-23T10:06:26;17.30;99.90
5786;DHT22;2919;48.630;9.000;2022-10-23T10:09:02;17.40;99.90
5786;DHT22;2919;48.630;9.000;2022-10-23T10:11:50;17.50;99.90
5786;DHT22;2919;48.630;9.000;2022-10-23T10:17:01;17.70;99.90
5786;DHT22;2919;48.630;9.000;2022-10-23T10:22:34;17.80;99.90
5786;DHT22;2919;48.630;9.000;2022-10-23T10:25:16;18.00;99.90
5786;DHT22;2919;48.630;9.000;2022-10-23T10:35:27;18.40;99.90
5786;DHT22;2919;48.630;9.000;2022-10-23T10:43:57;18.40;98.90
5786;DHT22;2919;48.630;9.000;2022-10-23T10:49:22;18.40;98.50
5786;DHT22;2919;48.630;9.000;2022-10-23T10:52:01;18.50;99.40
5786;DHT22;2919;48.630;9.000;2022-10-23T10:57:31;18.70;98.60
5786;DHT22;2919;48.630;9.000;2022-10-23T11:00:03;18.90;98.50
5786;DHT22;2919;48.630;9.000;2022-10-23T11:02:37;19.00;97.90
5786;DHT22;2919;48.630;9.000;2022-10-23T11:05:16;19.20;97.10
5786;DHT22;2919;48.630;9.000;2022-10-23T11:08:06;19.00;97.30
5786;DHT22;2919;48.630;9.000;2022-10-23T11:10:40;19.00;98.10
5786;DHT22;2919;48.630;9.000;2022-10-23T11:13:36;18.90;97.70
5786;DHT22;2919;48.630;9.000;2022-10-23T11:27:26;19.20;98.60
5786;DHT22;2919;48.630;9.000;2022-10-23T11:38:37;19.30;98.20
5786;DHT22;2919;48.630;9.000;2022-10-23T11:41:15;19.40;99.50
5786;DHT22;2919;48.630;9.000;2022-10-23T11:43:58;19.40;99.60
5786;DHT22;2919;48.630;9.000;2022-10-23T11:46:35;19.50;97.60
5786;DHT22;2919;48.630;9.000;2022-10-23T11:49:03;19.50;96.70
5786;DHT22;2919;48.630;9.000;2022-10-23T11:57:03;19.70;98.30
5786;DHT22;2919;48.630;9.000;2022-10-23T11:59:35;19.80;98.40
5786;DHT22;2919;48.630;9.000;2022-10-23T12:04:49;19.80;97.40
5786;DHT22;2919;48.630;9.000;2022-10-23T12:07:36;19.80;98.20
5786;DHT22;2919;48.630;9.000;2022-10-23T12:10:33;20.00;97.80
5786;DHT22;2919;48.630;9.000;2022-10-23T12:13:01;20.00;97.10
5786;DHT22;2919;48.630;9.000;2022-10-23T12:15:31;20.00;97.80
5786;DHT22;2919;48.630;9.000;2022-10-23T12:18:13;20.00;98.20
5786;DHT22;2919;48.630;9.000;2022-10-23T12:28:53;20.00;98.80
5786;DHT22;2919;48.630;9.000;2022-10-23T12:34:12;20.00;99.20
5786;DHT22;2919;48.630;9.000;2022-10-23T12:37:07;20.00;98.80
5786;DHT22;2919;48.630;9.000;2022-10-23T12:39:36;20.20;98.90
5786;DHT22;2919;48.630;9.000;2022-10-23T12:42:04;20.30;98.70
5786;DHT22;2919;48.630;9.000;2022-10-23T12:44:31;20.40;98.30
5786;DHT22;2919;48.630;9.000;2022-10-23T12:46:59;20.60;97.00
5786;DHT22;2919;48.630;9.000;2022-10-23T12:49:27;20.60;97.80
5786;DHT22;2919;48.630;9.000;2022-10-23T12:52:04;20.50;97.40
5786;DHT22;2919;48.630;9.000;2022-10-23T12:54:31;20.50;98.70
5786;DHT22;2919;48.630;9.000;2022-10-23T12:56:57;20.60;98.40
5786;DHT22;2919;48.630;9.000;2022-10-23T12:59:37;20.60;97.70
5786;DHT22;2919;48.630;9.000;2022-10-23T13:02:23;20.60;98.20
5786;DHT22;2919;48.630;9.000;2022-10-23T13:04:50;20.60;98.60
5786;DHT22;2919;48.630;9.000;2022-10-23T13:07:19;20.70;98.00
5786;DHT22;2919;48.630;9.000;2022-10-23T13:09:45;20.70;98.30
5786;DHT22;2919;48.630;9.000;2022-10-23T13:12:32;20.80;98.30
5786;DHT22;2919;48.630;9.000;2022-10-23T13:17:39;21.00;98.10
5786;DHT22;2919;48.630;9.000;2022-10-23T13:20:28;21.10;98.90
5786;DHT22;2919;48.630;9.000;2022-10-23T13:23:18;21.10;98.40
5786;DHT22;2919;48.630;9.000;2022-10-23T13:26:05;21.10;98.50
5786;DHT22;2919;48.630;9.000;2022-10-23T13:28:42;21.00;98.20
5786;DHT22;2919;48.630;9.000;2022-10-23T13:41:23;20.70;98.30
5786;DHT22;2919;48.630;9.000;2022-10-23T13:43:49;20.60;98.80
5786;DHT22;2919;48.630;9.000;2022-10-23T13:46:19;20.50;99.00
5786;DHT22;2919;48.630;9.000;2022-10-23T13:48:46;20.50;98.60
5786;DHT22;2919;48.630;9.000;2022-10-23T13:51:23;20.40;98.80
5786;DHT22;2919;48.630;9.000;2022-10-23T13:53:50;20.40;99.20
5786;DHT22;2919;48.630;9.000;2022-10-23T13:56:17;20.30;99.80
5786;DHT22;2919;48.630;9.000;2022-10-23T13:58:43;20.20;99.90
5786;DHT22;2919;48.630;9.000;2022-10-23T14:01:25;20.00;99.90
5786;DHT22;2919;48.630;9.000;2022-10-23T14:03:52;19.90;99.90
5786;DHT22;2919;48.630;9.000;2022-10-23T14:06:18;19.70;99.90
5786;DHT22;2919;48.630;9.000;2022-10-23T14:08:44;19.70;99.90
5786;DHT22;2919;48.630;9.000;2022-10-23T14:11:10;19.50;99.90
5786;DHT22;2919;48.630;9.000;2022-10-23T14:13:37;19.40;99.90
5786;DHT22;2919;48.630;9.000;2022-10-23T14:16:03;19.40;99.90
5786;DHT22;2919;48.630;9.000;2022-10-23T14:18:29;19.30;99.90
5786;DHT22;2919;48.630;9.000;2022-10-23T14:20:58;19.20;99.90
5786;DHT22;2919;48.630;9.000;2022-10-23T14:23:23;19.20;99.90
5786;DHT22;2919;48.630;9.000;2022-10-23T14:25:49;19.20;99.90
5786;DHT22;2919;48.630;9.000;2022-10-23T14:28:14;19.10;99.90
5786;DHT22;2919;48.630;9.000;2022-10-23T14:30:40;19.00;99.90
5786;DHT22;2919;48.630;9.000;2022-10-23T14:33:05;19.00;99.90
5786;DHT22;2919;48.630;9.000;2022-10-23T14:35:31;19.00;99.90
5786;DHT22;2919;48.630;9.000;2022-10-23T14:37:56;18.90;99.90
5786;DHT22;2919;48.630;9.000;2022-10-23T14:40:23;18.90;99.90
5786;DHT22;2919;48.630;9.000;2022-10-23T14:42:48;18.80;99.90
5786;DHT22;2919;48.630;9.000;2022-10-23T14:45:14;18.80;99.90
5786;DHT22;2919;48.630;9.000;2022-10-23T14:47:40;18.80;99.90
5786;DHT22;2919;48.630;9.000;2022-10-23T14:50:06;18.70;99.90
5786;DHT22;2919;48.630;9.000;2022-10-23T14:52:32;18.70;99.90
5786;DHT22;2919;48.630;9.000;2022-10-23T14:54:57;18.70;99.90
5786;DHT22;2919;48.630;9.000;2022-10-23T14:57:23;18.70;99.90
5786;DHT22;2919;48.630;9.000;2022-10-23T14:59:48;18.80;99.90
5786;DHT22;2919;48.630;9.000;2022-10-23T15:02:15;18.90;99.90
5786;DHT22;2919;48.630;9.000;2022-10-23T15:04:41;18.90;99.90
5786;DHT22;2919;48.630;9.000;2022-10-23T15:07:06;19.00;99.90
5786;DHT22;2919;48.630;9.000;2022-10-23T15:09:32;19.00;99.90
5786;DHT22;2919;48.630;9.000;2022-10-23T15:12:01;19.10;99.90
5786;DHT22;2919;48.630;9.000;2022-10-23T15:14:27;19.10;99.90
5786;DHT22;2919;48.630;9.000;2022-10-23T15:16:52;19.10;99.90
5786;DHT22;2919;48.630;9.000;2022-10-23T15:19:18;19.00;99.90
5786;DHT22;2919;48.630;9.000;2022-10-23T15:21:44;19.10;99.90
5786;DHT22;2919;48.630;9.000;2022-10-23T15:24:10;19.00;99.90
5786;DHT22;2919;48.630;9.000;2022-10-23T15:26:35;19.10;99.90
5786;DHT22;2919;48.630;9.000;2022-10-23T15:29:03;19.00;99.90
5786;DHT22;2919;48.630;9.000;2022-10-23T15:33:55;18.90;99.90
5786;DHT22;2919;48.630;9.000;2022-10-23T15:36:21;18.80;99.90
5786;DHT22;2919;48.630;9.000;2022-10-23T15:38:48;18.80;99.90
5786;DHT22;2919;48.630;9.000;2022-10-23T15:41:18;18.70;99.90
5786;DHT22;2919;48.630;9.000;2022-10-23T15:43:46;18.60;99.90
5786;DHT22;2919;48.630;9.000;2022-10-23T15:46:11;18.50;99.90
5786;DHT22;2919;48.630;9.000;2022-10-23T15:48:37;18.50;99.90
5786;DHT22;2919;48.630;9.000;2022-10-23T15:51:03;18.40;99.90
5786;DHT22;2919;48.630;9.000;2022-10-23T15:53:29;18.30;99.90
5786;DHT22;2919;48.630;9.000;2022-10-23T15:55:54;18.20;99.90
5786;DHT22;2919;48.630;9.000;2022-10-23T15:58:23;18.10;99.90
5786;DHT22;2919;48.630;9.000;2022-10-23T16:00:49;18.00;99.90
5786;DHT22;2919;48.630;9.000;2022-10-23T16:03:14;17.80;99.90
5786;DHT22;2919;48.630;9.000;2022-10-23T16:05:40;17.70;99.90
5786;DHT22;2919;48.630;9.000;2022-10-23T16:08:05;17.60;99.90
5786;DHT22;2919;48.630;9.000;2022-10-23T16:10:31;17.50;99.90
5786;DHT22;2919;48.630;9.000;2022-10-23T16:12:57;17.40;99.90
5786;DHT22;2919;48.630;9.000;2022-10-23T16:15:22;17.30;99.90
5786;DHT22;2919;48.630;9.000;2022-10-23T16:17:48;17.20;99.90
5786;DHT22;2919;48.630;9.000;2022-10-23T16:20:14;17.20;99.90
5786;DHT22;2919;48.630;9.000;2022-10-23T16:22:40;17.20;99.90
5786;DHT22;2919;48.630;9.000;2022-10-23T16:25:06;17.10;99.90
5786;DHT22;2919;48.630;9.000;2022-10-23T16:27:32;17.10;99.90
5786;DHT22;2919;48.630;9.000;2022-10-23T16:29:57;17.00;99.90
5786;DHT22;2919;48.630;9.000;2022-10-23T16:32:23;17.00;99.90
5786;DHT22;2919;48.630;9.000;2022-10-23T16:34:48;17.00;99.90
5786;DHT22;2919;48.630;9.000;2022-10-23T16:37:14;17.00;99.90
5786;DHT22;2919;48.630;9.000;2022-10-23T16:39:40;17.00;99.90
5786;DHT22;2919;48.630;9.000;2022-10-23T16:42:05;17.00;99.90
5786;DHT22;2919;48.630;9.000;2022-10-23T16:44:31;17.00;99.90
5786;DHT22;2919;48.630;9.000;2022-10-23T16:46:56;17.10;99.90
5786;DHT22;2919;48.630;9.000;2022-10-23T16:49:22;16.90;99.90
5786;DHT22;2919;48.630;9.000;2022-10-23T16:51:48;16.90;99.90
5786;DHT22;2919;48.630;9.000;2022-10-23T16:54:13;16.90;99.90
5786;DHT22;2919;48.630;9.000;2022-10-23T16:56:39;16.80;99.90
5786;DHT22;2919;48.630;9.000;2022-10-23T16:59:05;16.80;99.90
5786;DHT22;2919;48.630;9.000;2022-10-23T17:01:31;16.80;99.90
5786;DHT22;2919;48.630;9.000;2022-10-23T17:03:57;16.80;99.90
5786;DHT22;2919;48.630;9.000;2022-10-23T17:06:29;16.80;99.90
5786;DHT22;2919;48.630;9.000;2022-10-23T17:08:56;16.70;99.90
5786;DHT22;2919;48.630;9.000;2022-10-23T17:11:27;16.70;99.90
5786;DHT22;2919;48.630;9.000;2022-10-23T17:13:56;16.60;99.90
5786;DHT22;2919;48.630;9.000;2022-10-23T17:16:44;16.60;99.90
5786;DHT22;2919;48.630;9.000;2022-10-23T17:19:11;16.60;99.90
5786;DHT22;2919;48.630;9.000;2022-10-23T17:21:39;16.60;99.90
5786;DHT22;2919;48.630;9.000;2022-10-23T17:24:05;16.70;99.90
5786;DHT22;2919;48.630;9.000;2022-10-23T17:26:32;16.90;99.90
5786;DHT22;2919;48.630;9.000;2022-10-23T17:29:00;17.10;99.90
5786;DHT22;2919;48.630;9.000;2022-10-23T17:31:31;17.20;99.90
5786;DHT22;2919;48.630;9.000;2022-10-23T17:33:59;17.20;99.90
5786;DHT22;2919;48.630;9.000;2022-10-23T17:36:27;17.20;99.90
5786;DHT22;2919;48.630;9.000;2022-10-23T17:38:53;17.20;99.90
5786;DHT22;2919;48.630;9.000;2022-10-23T17:41:21;17.10;99.90
5786;DHT22;2919;48.630;9.000;2022-10-23T17:43:48;16.90;99.90
5786;DHT22;2919;48.630;9.000;2022-10-23T17:46:14;16.80;99.90
5786;DHT22;2919;48.630;9.000;2022-10-23T17:48:40;16.70;99.90
5786;DHT22;2919;48.630;9.000;2022-10-23T17:51:10;16.60;99.90
5786;DHT22;2919;48.630;9.000;2022-10-23T17:53:37;16.50;99.90
5786;DHT22;2919;48.630;9.000;2022-10-23T17:56:05;16.40;99.90
5786;DHT22;2919;48.630;9.000;2022-10-23T17:58:32;16.40;99.90
5786;DHT22;2919;48.630;9.000;2022-10-23T18:01:07;16.30;99.90
5786;DHT22;2919;48.630;9.000;2022-10-23T18:03:34;16.20;99.90
5786;DHT22;2919;48.630;9.000;2022-10-23T18:06:18;16.00;99.90
5786;DHT22;2919;48.630;9.000;2022-10-23T18:08:44;15.90;99.90
5786;DHT22;2919;48.630;9.000;2022-10-23T18:11:20;15.90;99.90
5786;DHT22;2919;48.630;9.000;2022-10-23T18:13:46;16.20;99.90
5786;DHT22;2919;48.630;9.000;2022-10-23T18:16:12;16.40;99.90
5786;DHT22;2919;48.630;9.000;2022-10-23T18:18:40;16.70;99.90
5786;DHT22;2919;48.630;9.000;2022-10-23T18:21:06;16.90;99.90